createdAt,value
2019-02-02T00:02:10.238Z,39.55
2019-02-02T00:04:40.703Z,39.85
2019-02-02T00:07:11.019Z,40.40
2019-02-02T00:09:41.327Z,44.00
2019-02-02T00:12:11.826Z,46.33
2019-02-02T00:14:45.033Z,44.23
2019-02-02T00:17:14.041Z,41.25
2019-02-02T00:19:44.347Z,41.80
2019-02-02T00:22:14.680Z,39.90
2019-02-02T00:24:45.088Z,38.08
2019-02-02T00:27:15.653Z,46.88
2019-02-02T00:29:46.006Z,47.80
2019-02-02T00:32:16.474Z,46.88
2019-02-02T00:34:46.847Z,45.17
2019-02-02T00:39:53.215Z,49.88
2019-02-02T00:42:23.572Z,50.83
2019-02-02T00:44:53.924Z,51.85
2019-02-02T00:47:24.348Z,51.90
2019-02-02T00:49:54.706Z,49.20
2019-02-02T00:52:25.061Z,52.20
2019-02-02T00:54:55.429Z,49.93
2019-02-02T00:57:25.780Z,49.48
2019-02-02T00:59:56.150Z,51.02
2019-02-02T01:02:26.580Z,57.47
2019-02-02T01:04:57.320Z,51.58
2019-02-02T01:07:27.708Z,51.27
2019-02-02T01:09:58.133Z,55.63
2019-02-02T01:12:28.724Z,53.27
2019-02-02T01:14:59.099Z,55.00
2019-02-02T01:17:29.568Z,53.55
2019-02-02T01:20:00.045Z,51.50
2019-02-02T01:22:30.346Z,53.10
2019-02-02T01:25:00.875Z,53.33
2019-02-02T01:27:31.176Z,54.63
2019-02-02T01:30:01.545Z,54.37
2019-02-02T01:32:32.062Z,53.17
2019-02-02T01:35:02.414Z,55.73
2019-02-02T01:37:32.716Z,54.20
2019-02-02T01:40:03.117Z,52.30
2019-02-02T01:42:33.470Z,54.23
2019-02-02T01:45:03.865Z,53.87
2019-02-02T01:47:34.359Z,54.47
2019-02-02T01:50:04.916Z,53.17
2019-02-02T01:52:35.310Z,53.97
2019-02-02T01:55:07.519Z,52.90
2019-02-02T01:57:37.889Z,62.43
2019-02-02T02:00:10.812Z,57.90
2019-02-02T02:02:41.214Z,52.50
2019-02-02T02:05:11.821Z,54.60
2019-02-02T02:07:42.657Z,53.60
2019-02-02T02:10:18.724Z,51.63
2019-02-02T02:12:49.246Z,49.03
2019-02-02T02:15:21.119Z,50.70
2019-02-02T02:17:51.520Z,52.40
2019-02-02T02:20:24.304Z,44.53
2019-02-02T02:22:54.083Z,23.77
2019-02-02T02:25:24.582Z,29.23
2019-02-02T02:27:54.890Z,33.73
2019-02-02T02:30:26.261Z,33.93
2019-02-02T02:32:56.800Z,17.30
2019-02-02T02:35:27.135Z,8.37
2019-02-02T02:37:57.625Z,8.50
2019-02-02T02:40:28.111Z,8.67
2019-02-02T02:42:58.411Z,10.37
2019-02-02T02:45:28.758Z,11.77
2019-02-02T02:47:59.172Z,10.15
2019-02-02T02:50:29.543Z,9.40
2019-02-02T02:52:59.826Z,9.80
2019-02-02T02:55:30.336Z,8.37
2019-02-02T02:58:00.694Z,8.67
2019-02-02T03:00:31.610Z,7.60
2019-02-02T03:03:02.076Z,8.70
2019-02-02T03:05:32.783Z,10.20
2019-02-02T03:08:03.071Z,16.40
2019-02-02T03:10:33.559Z,12.30
2019-02-02T03:13:04.026Z,13.43
2019-02-02T03:15:34.444Z,12.90
2019-02-02T03:18:04.955Z,14.67
2019-02-02T03:20:35.329Z,12.07
2019-02-02T03:23:05.699Z,11.73
2019-02-02T03:25:36.171Z,11.30
2019-02-02T03:28:06.646Z,10.70
2019-02-02T03:30:36.989Z,11.17
2019-02-02T03:33:07.430Z,12.63
2019-02-02T03:35:37.807Z,9.40
2019-02-02T03:38:08.091Z,9.30
2019-02-02T03:40:38.619Z,9.57
2019-02-02T03:43:08.950Z,11.23
2019-02-02T03:45:40.938Z,9.97
2019-02-02T03:48:11.879Z,8.40
2019-02-02T03:50:42.632Z,12.83
2019-02-02T03:53:13.894Z,11.93
2019-02-02T03:55:44.648Z,11.10
2019-02-02T03:58:15.029Z,12.90
2019-02-02T04:00:45.408Z,10.40
2019-02-02T04:03:15.842Z,10.97
2019-02-02T04:05:46.200Z,10.97
2019-02-02T04:08:16.571Z,8.63
2019-02-02T04:10:47.037Z,9.23
2019-02-02T04:13:17.647Z,9.20
2019-02-02T04:15:48.210Z,9.37
2019-02-02T04:18:18.764Z,9.83
2019-02-02T04:20:52.007Z,7.83
2019-02-02T04:23:22.640Z,9.07
2019-02-02T04:25:53.033Z,8.33
2019-02-02T04:28:23.537Z,7.93
2019-02-02T04:30:54.059Z,9.93
2019-02-02T04:33:24.917Z,10.60
2019-02-02T04:35:55.360Z,10.23
2019-02-02T04:38:25.713Z,11.13
2019-02-02T04:40:56.131Z,11.67
2019-02-02T04:43:26.628Z,11.50
2019-02-02T04:45:57.112Z,12.60
2019-02-02T04:48:27.471Z,11.60
2019-02-02T04:50:57.815Z,10.43
2019-02-02T04:53:28.248Z,9.20
2019-02-02T04:55:58.614Z,10.60
2019-02-02T04:58:28.980Z,11.23
2019-02-02T05:01:18.443Z,14.97
2019-02-02T05:03:48.736Z,17.73
2019-02-02T05:06:19.091Z,19.03
2019-02-02T05:08:49.526Z,19.03
2019-02-02T05:11:19.839Z,20.73
2019-02-02T05:13:50.144Z,19.53
2019-02-02T05:16:20.649Z,16.63
2019-02-02T05:18:51.267Z,15.70
2019-02-02T05:21:21.616Z,15.17
2019-02-02T05:23:51.969Z,16.27
2019-02-02T05:26:22.924Z,18.50
2019-02-02T05:28:53.275Z,35.10
2019-02-02T05:31:23.674Z,36.33
2019-02-02T05:33:54.053Z,25.83
2019-02-02T05:36:24.492Z,26.63
2019-02-02T05:38:54.780Z,26.57
2019-02-02T05:41:25.130Z,25.30
2019-02-02T05:43:55.570Z,22.53
2019-02-02T05:46:25.844Z,18.00
2019-02-02T05:48:56.229Z,14.33
2019-02-02T05:51:26.703Z,12.80
2019-02-02T05:53:57.060Z,11.27
2019-02-02T05:56:27.437Z,12.03
2019-02-02T05:58:57.795Z,18.47
2019-02-02T06:01:30.059Z,22.83
2019-02-02T06:04:00.352Z,20.57
2019-02-02T06:06:30.714Z,15.87
2019-02-02T06:09:01.003Z,13.47
2019-02-02T06:11:31.849Z,11.43
2019-02-02T06:14:02.197Z,12.13
2019-02-02T06:16:32.564Z,11.60
2019-02-02T06:19:03.090Z,11.30
2019-02-02T06:21:33.420Z,12.37
2019-02-02T06:24:05.210Z,11.43
2019-02-02T06:26:35.716Z,10.83
2019-02-02T06:29:07.263Z,12.60
2019-02-02T06:31:37.573Z,11.87
2019-02-02T06:34:07.998Z,11.83
2019-02-02T06:36:38.366Z,11.93
2019-02-02T06:39:08.921Z,12.93
2019-02-02T06:41:39.398Z,12.67
2019-02-02T06:44:09.695Z,12.67
2019-02-02T06:46:43.743Z,11.30
2019-02-02T06:49:12.542Z,12.33
2019-02-02T06:51:42.881Z,10.50
2019-02-02T06:54:13.260Z,11.10
2019-02-02T06:56:43.706Z,10.80
2019-02-02T06:59:14.011Z,10.60
2019-02-02T07:01:44.398Z,10.63
2019-02-02T07:04:15.559Z,11.30
2019-02-02T07:06:45.870Z,13.33
2019-02-02T07:09:16.342Z,12.73
2019-02-02T07:11:46.632Z,12.47
2019-02-02T07:14:16.989Z,14.30
2019-02-02T07:16:53.694Z,13.43
2019-02-02T07:19:24.063Z,13.13
2019-02-02T07:21:54.446Z,13.77
2019-02-02T07:24:24.878Z,15.63
2019-02-02T07:26:55.231Z,12.70
2019-02-02T07:29:25.603Z,12.43
2019-02-02T07:31:58.754Z,13.43
2019-02-02T07:34:29.128Z,12.70
2019-02-02T07:36:59.567Z,12.73
2019-02-02T07:39:30.848Z,12.20
2019-02-02T07:42:01.207Z,13.23
2019-02-02T07:44:31.720Z,13.47
2019-02-02T07:47:02.302Z,11.80
2019-02-02T07:49:32.903Z,12.17
2019-02-02T07:52:22.575Z,11.50
2019-02-02T07:54:53.198Z,12.57
2019-02-02T07:57:23.636Z,11.83
2019-02-02T07:59:54.129Z,13.83
2019-02-02T08:02:24.486Z,10.10
2019-02-02T08:04:54.850Z,10.47
2019-02-02T08:07:27.097Z,13.43
2019-02-02T08:09:57.650Z,11.53
2019-02-02T08:12:28.096Z,12.57
2019-02-02T08:14:59.804Z,10.30
2019-02-02T08:17:32.331Z,11.83
2019-02-02T08:20:03.120Z,13.30
2019-02-02T08:22:33.522Z,13.13
2019-02-02T08:25:03.869Z,15.83
2019-02-02T08:27:34.554Z,16.50
2019-02-02T08:30:06.116Z,16.73
2019-02-02T08:32:36.479Z,16.27
2019-02-02T08:35:08.485Z,17.40
2019-02-02T08:37:38.789Z,16.37
2019-02-02T08:40:14.786Z,13.93
2019-02-02T08:42:45.149Z,12.87
2019-02-02T08:45:16.743Z,12.03
2019-02-02T08:47:47.181Z,11.67
2019-02-02T08:50:24.682Z,11.30
2019-02-02T08:52:55.070Z,11.00
2019-02-02T08:55:25.516Z,11.00
2019-02-02T08:57:55.969Z,10.47
2019-02-02T09:00:26.504Z,11.30
2019-02-02T09:02:57.124Z,12.60
2019-02-02T09:05:27.781Z,10.63
2019-02-02T09:07:58.070Z,11.93
2019-02-02T09:10:30.506Z,11.43
2019-02-02T09:13:00.969Z,11.43
2019-02-02T09:15:31.394Z,9.53
2019-02-02T09:18:01.833Z,10.77
2019-02-02T09:20:32.389Z,10.37
2019-02-02T09:23:06.380Z,10.43
2019-02-02T09:25:34.705Z,9.97
2019-02-02T09:28:05.143Z,9.57
2019-02-02T09:30:43.961Z,9.83
2019-02-02T09:33:13.878Z,10.47
2019-02-02T09:35:44.539Z,9.37
2019-02-02T09:38:14.943Z,11.13
2019-02-02T09:40:45.453Z,10.33
2019-02-02T09:43:15.947Z,9.27
2019-02-02T09:45:48.176Z,9.27
2019-02-02T09:48:18.214Z,8.93
2019-02-02T09:50:48.750Z,9.30
2019-02-02T09:53:19.357Z,8.63
2019-02-02T09:55:49.883Z,9.20
2019-02-02T09:58:20.364Z,10.00
2019-02-02T10:00:50.794Z,12.10
2019-02-02T10:03:22.960Z,12.67
2019-02-02T10:05:53.258Z,11.17
2019-02-02T10:08:23.647Z,14.80
2019-02-02T10:10:54.211Z,14.57
2019-02-02T10:13:24.557Z,14.17
2019-02-02T10:15:54.889Z,12.27
2019-02-02T10:18:25.352Z,11.93
2019-02-02T10:21:03.731Z,12.00
2019-02-02T10:23:27.554Z,12.10
2019-02-02T10:25:58.034Z,10.43
2019-02-02T10:28:28.397Z,11.53
2019-02-02T10:30:58.789Z,13.57
2019-02-02T10:33:29.259Z,12.83
2019-02-02T10:35:59.673Z,11.77
2019-02-02T10:38:29.974Z,11.80
2019-02-02T10:41:00.512Z,12.80
2019-02-02T10:43:30.779Z,11.07
2019-02-02T10:46:01.156Z,11.70
2019-02-02T10:48:31.555Z,10.33
2019-02-02T10:51:01.938Z,11.07
2019-02-02T10:53:32.310Z,10.63
2019-02-02T10:56:02.834Z,10.97
2019-02-02T10:58:33.209Z,11.50
2019-02-02T11:01:03.668Z,10.40
2019-02-02T11:03:35.148Z,11.67
2019-02-02T11:06:05.632Z,10.30
2019-02-02T11:08:39.735Z,10.17
2019-02-02T11:11:10.122Z,10.70
2019-02-02T11:13:42.435Z,10.67
2019-02-02T11:16:19.504Z,12.23
2019-02-02T11:18:50.484Z,10.90
2019-02-02T11:21:20.904Z,10.90
2019-02-02T11:23:52.160Z,10.57
2019-02-02T11:26:22.632Z,15.87
2019-02-02T11:28:53.899Z,25.27
2019-02-02T11:31:25.812Z,17.07
2019-02-02T11:33:57.157Z,16.27
2019-02-02T11:36:32.902Z,19.20
2019-02-02T11:39:03.283Z,23.63
2019-02-02T11:41:52.705Z,26.40
2019-02-02T11:44:26.417Z,30.73
2019-02-02T11:46:57.144Z,26.70
2019-02-02T11:49:27.559Z,24.57
2019-02-02T11:51:57.898Z,22.63
2019-02-02T11:54:28.315Z,26.33
2019-02-02T11:56:59.345Z,17.47
2019-02-02T11:59:29.749Z,14.43
2019-02-02T12:02:00.261Z,15.77
2019-02-02T12:04:31.266Z,13.93
2019-02-02T12:07:01.651Z,12.63
2019-02-02T12:09:32.322Z,13.27
2019-02-02T12:12:04.513Z,12.57
2019-02-02T12:14:34.873Z,12.50
2019-02-02T12:17:05.422Z,13.33
2019-02-02T12:19:35.798Z,12.00
2019-02-02T12:22:06.601Z,12.37
2019-02-02T12:24:36.989Z,13.37
2019-02-02T12:27:07.342Z,13.17
2019-02-02T12:29:37.734Z,13.73
2019-02-02T12:32:08.275Z,13.13
2019-02-02T12:34:38.785Z,13.23
2019-02-02T12:37:09.287Z,12.40
2019-02-02T12:39:39.583Z,11.50
2019-02-02T12:42:10.179Z,10.93
2019-02-02T12:44:43.281Z,11.90
2019-02-02T12:47:13.695Z,11.87
2019-02-02T12:49:44.176Z,12.80
2019-02-02T12:52:14.576Z,11.60
2019-02-02T12:54:45.034Z,11.47
2019-02-02T12:57:15.748Z,12.30
2019-02-02T12:59:46.951Z,12.77
2019-02-02T13:02:17.365Z,13.30
2019-02-02T13:04:47.898Z,14.70
2019-02-02T13:07:18.557Z,12.63
2019-02-02T13:09:48.838Z,12.73
2019-02-02T13:12:19.441Z,12.30
2019-02-02T13:14:50.402Z,13.47
2019-02-02T13:17:20.877Z,10.53
2019-02-02T13:19:51.200Z,10.73
2019-02-02T13:22:21.840Z,14.07
2019-02-02T13:24:54.933Z,11.17
2019-02-02T13:27:25.373Z,12.20
2019-02-02T13:29:55.882Z,10.67
2019-02-02T13:32:26.365Z,12.87
2019-02-02T13:34:56.921Z,13.53
2019-02-02T13:37:28.690Z,12.87
2019-02-02T13:39:59.187Z,14.67
2019-02-02T13:42:29.541Z,14.07
2019-02-02T13:45:00.334Z,11.40
2019-02-02T13:47:30.732Z,11.33
2019-02-02T13:50:01.124Z,11.93
2019-02-02T13:52:31.633Z,13.83
2019-02-02T13:55:02.247Z,14.15
2019-02-02T13:57:32.617Z,12.43
2019-02-02T14:00:03.802Z,15.15
2019-02-02T14:02:34.172Z,12.13
2019-02-02T14:05:05.589Z,11.35
2019-02-02T14:07:36.137Z,10.05
2019-02-02T14:10:09.497Z,10.38
2019-02-02T14:12:39.940Z,7.95
2019-02-02T14:15:12.810Z,9.88
2019-02-02T14:17:43.103Z,7.72
2019-02-02T14:20:15.225Z,8.33
2019-02-02T14:22:46.806Z,8.63
2019-02-02T14:25:18.273Z,8.65
2019-02-02T14:27:48.870Z,8.98
2019-02-02T14:30:29.429Z,13.32
2019-02-02T14:32:59.779Z,8.65
2019-02-02T14:35:31.799Z,11.53
2019-02-02T14:38:02.310Z,11.03
2019-02-02T14:40:32.884Z,10.60
2019-02-02T14:43:03.259Z,9.83
2019-02-02T14:45:33.928Z,9.60
2019-02-02T14:48:05.789Z,9.65
2019-02-02T14:50:36.449Z,9.25
2019-02-02T14:53:06.906Z,8.95
2019-02-02T14:55:37.215Z,11.25
2019-02-02T14:58:08.044Z,9.70
2019-02-02T15:00:38.623Z,9.55
2019-02-02T15:03:12.065Z,10.25
2019-02-02T15:05:43.387Z,9.15
2019-02-02T15:08:14.329Z,9.23
2019-02-02T15:10:44.836Z,9.45
2019-02-02T15:13:15.330Z,9.65
2019-02-02T15:15:45.853Z,8.50
2019-02-02T15:18:18.148Z,9.68
2019-02-02T15:20:49.166Z,7.60
2019-02-02T15:23:19.667Z,8.08
2019-02-02T15:25:50.428Z,8.48
2019-02-02T15:28:20.840Z,6.45
2019-02-02T15:30:53.999Z,6.42
2019-02-02T15:33:37.270Z,7.65
2019-02-02T15:35:58.032Z,7.55
2019-02-02T15:38:28.565Z,6.95
2019-02-02T15:40:59.531Z,6.92
2019-02-02T15:43:34.489Z,6.67
2019-02-02T15:46:05.057Z,6.90
2019-02-02T15:48:36.896Z,9.03
2019-02-02T15:51:07.305Z,7.20
2019-02-02T15:53:37.774Z,6.42
2019-02-02T15:56:08.326Z,7.30
2019-02-02T15:58:38.669Z,6.12
2019-02-02T16:01:09.043Z,4.30
2019-02-02T16:03:49.300Z,6.12
2019-02-02T16:06:12.061Z,4.95
2019-02-02T16:08:44.058Z,5.12
2019-02-02T16:11:14.566Z,3.90
2019-02-02T16:13:44.884Z,4.67
2019-02-02T16:16:15.667Z,8.45
2019-02-02T16:18:46.116Z,4.83
2019-02-02T16:21:16.519Z,4.85
2019-02-02T16:23:47.100Z,4.92
2019-02-02T16:26:18.805Z,4.42
2019-02-02T16:28:51.160Z,4.00
2019-02-02T16:31:25.604Z,4.22
2019-02-02T16:34:02.278Z,2.55
2019-02-02T16:36:27.747Z,2.15
2019-02-02T16:39:01.615Z,3.30
2019-02-02T16:41:32.037Z,4.72
2019-02-02T16:44:02.904Z,3.00
2019-02-02T16:46:33.629Z,3.20
2019-02-02T16:49:03.992Z,4.65
2019-02-02T16:51:34.396Z,3.58
2019-02-02T16:54:06.480Z,3.47
2019-02-02T16:56:37.205Z,2.70
2019-02-02T16:59:07.839Z,4.85
2019-02-02T17:01:38.341Z,3.90
2019-02-02T17:04:16.068Z,5.72
2019-02-02T17:06:42.240Z,3.95
2019-02-02T17:09:14.103Z,2.80
2019-02-02T17:11:44.687Z,3.30
2019-02-02T17:14:17.805Z,4.92
2019-02-02T17:16:48.440Z,4.58
2019-02-02T17:19:19.131Z,3.12
2019-02-02T17:21:52.764Z,3.92
2019-02-02T17:24:23.528Z,3.95
2019-02-02T17:26:53.916Z,3.98
2019-02-02T17:29:25.115Z,3.72
2019-02-02T17:31:56.423Z,5.33
2019-02-02T17:35:04.616Z,3.37
2019-02-02T17:37:09.833Z,4.00
2019-02-02T17:39:43.205Z,4.00
2019-02-02T17:42:14.141Z,3.98
2019-02-02T17:44:44.846Z,4.90
2019-02-02T17:47:24.406Z,3.05
2019-02-02T17:49:58.308Z,3.37
2019-02-02T17:52:28.556Z,3.80
2019-02-02T17:55:00.967Z,2.87
2019-02-02T17:57:38.407Z,3.75
2019-02-02T18:00:25.025Z,3.90
2019-02-02T18:02:58.449Z,3.20
2019-02-02T18:05:37.802Z,3.33
2019-02-02T18:08:08.719Z,3.20
2019-02-02T18:10:39.384Z,4.30
2019-02-02T18:13:13.238Z,4.05
2019-02-02T18:15:43.550Z,5.20
2019-02-02T18:18:14.320Z,4.42
2019-02-02T18:20:44.669Z,3.08
2019-02-02T18:23:18.458Z,4.03
2019-02-02T18:25:50.820Z,3.60
2019-02-02T18:28:21.226Z,2.75
2019-02-02T18:30:51.926Z,3.77
2019-02-02T18:33:24.863Z,4.40
2019-02-02T18:35:55.235Z,3.52
2019-02-02T18:38:25.712Z,8.13
2019-02-02T18:40:56.521Z,3.55
2019-02-02T18:43:29.161Z,4.47
2019-02-02T18:45:59.818Z,4.62
2019-02-02T18:48:30.333Z,3.30
2019-02-02T18:51:00.997Z,4.42
2019-02-02T18:53:31.379Z,6.12
2019-02-02T18:56:02.535Z,3.75
2019-02-02T18:58:37.404Z,7.90
2019-02-02T19:01:08.069Z,4.45
2019-02-02T19:03:38.579Z,4.60
2019-02-02T19:06:09.238Z,3.02
2019-02-02T19:08:42.337Z,2.80
2019-02-02T19:11:12.719Z,3.50
2019-02-02T19:13:43.333Z,3.20
2019-02-02T19:16:13.861Z,3.98
2019-02-02T19:18:47.045Z,2.70
2019-02-02T19:21:17.734Z,2.50
2019-02-02T19:23:49.608Z,5.10
2019-02-02T19:26:20.281Z,4.83
2019-02-02T19:28:50.785Z,4.30
2019-02-02T19:31:21.410Z,4.03
2019-02-02T19:33:52.045Z,3.30
2019-02-02T19:36:22.599Z,4.80
2019-02-02T19:38:53.041Z,4.00
2019-02-02T19:41:24.082Z,3.45
2019-02-02T19:43:58.260Z,3.30
2019-02-02T19:46:27.948Z,4.75
2019-02-02T19:48:58.259Z,4.50
2019-02-02T19:51:28.728Z,4.03
2019-02-02T19:54:02.083Z,2.50
2019-02-02T19:56:32.578Z,4.37
2019-02-02T19:59:03.050Z,3.83
2019-02-02T20:01:33.527Z,2.83
2019-02-02T20:04:04.894Z,5.40
2019-02-02T20:06:36.851Z,3.02
2019-02-02T20:09:08.806Z,5.00
2019-02-02T20:11:41.365Z,4.28
2019-02-02T20:14:11.677Z,3.58
2019-02-02T20:16:42.147Z,3.77
2019-02-02T20:19:12.758Z,5.72
2019-02-02T20:21:44.660Z,4.10
2019-02-02T20:24:15.335Z,3.17
2019-02-02T20:26:45.893Z,5.20
2019-02-02T20:29:16.226Z,5.40
2019-02-02T20:31:46.889Z,5.15
2019-02-02T20:34:17.193Z,4.75
2019-02-02T20:36:48.942Z,3.87
2019-02-02T20:39:19.399Z,2.90
2019-02-02T20:41:49.777Z,2.80
2019-02-02T20:44:20.309Z,3.05
2019-02-02T20:46:50.785Z,3.02
2019-02-02T20:49:21.102Z,3.98
2019-02-02T20:51:51.567Z,3.30
2019-02-02T20:54:22.021Z,3.67
2019-02-02T20:56:52.484Z,4.15
2019-02-02T20:59:22.969Z,3.33
2019-02-02T21:01:53.402Z,2.98
2019-02-02T21:04:23.857Z,3.35
2019-02-02T21:06:54.230Z,3.77
2019-02-02T21:09:26.138Z,4.37
2019-02-02T21:11:57.352Z,4.00
2019-02-02T21:14:28.321Z,2.87
2019-02-02T21:16:58.970Z,3.35
2019-02-02T21:19:29.885Z,3.47
2019-02-02T21:22:00.468Z,4.20
2019-02-02T21:24:34.848Z,4.03
2019-02-02T21:27:05.608Z,4.97
2019-02-02T21:29:37.437Z,3.52
2019-02-02T21:32:07.832Z,4.65
2019-02-02T21:34:38.876Z,3.62
2019-02-02T21:37:09.379Z,3.08
2019-02-02T21:39:39.752Z,4.58
2019-02-02T21:42:10.647Z,5.95
2019-02-02T21:44:43.316Z,4.17
2019-02-02T21:47:13.226Z,3.40
2019-02-02T21:49:43.816Z,3.10
2019-02-02T21:52:14.317Z,4.53
2019-02-02T21:54:45.370Z,4.62
2019-02-02T21:57:15.842Z,2.98
2019-02-02T21:59:46.250Z,3.05
2019-02-02T22:02:16.776Z,3.02
2019-02-02T22:04:47.253Z,3.65
2019-02-02T22:07:17.920Z,3.40
2019-02-02T22:09:48.284Z,3.22
2019-02-02T22:12:18.749Z,2.87
2019-02-02T22:14:49.436Z,2.80
2019-02-02T22:17:20.296Z,3.50
2019-02-02T22:19:50.981Z,2.92
2019-02-02T22:22:21.817Z,3.33
2019-02-02T22:24:52.183Z,4.10
2019-02-02T22:27:22.655Z,2.50
2019-02-02T22:29:53.120Z,2.85
2019-02-02T22:32:23.539Z,3.60
2019-02-02T22:34:53.975Z,3.35
2019-02-02T22:37:24.459Z,3.42
2019-02-02T22:39:54.821Z,3.60
2019-02-02T22:42:25.243Z,3.12
2019-02-02T22:44:55.662Z,3.22
2019-02-02T22:47:26.578Z,2.72
2019-02-02T22:49:57.149Z,4.25
2019-02-02T22:52:28.990Z,3.40
2019-02-02T22:54:59.373Z,3.20
2019-02-02T22:57:29.752Z,3.17
2019-02-02T23:00:00.359Z,3.30
2019-02-02T23:02:30.714Z,2.25
2019-02-02T23:05:03.611Z,3.42
2019-02-02T23:07:37.214Z,2.50
2019-02-02T23:10:26.918Z,3.77
2019-02-02T23:13:06.159Z,2.70
2019-02-02T23:15:56.024Z,2.37
2019-02-02T23:18:27.000Z,2.70
2019-02-02T23:20:57.363Z,2.75
2019-02-02T23:23:28.119Z,4.87
2019-02-02T23:25:58.576Z,2.62
2019-02-02T23:28:28.971Z,2.90
2019-02-02T23:30:59.951Z,3.02
2019-02-02T23:33:30.475Z,4.10
2019-02-02T23:36:01.431Z,2.40
2019-02-02T23:38:31.720Z,2.70
2019-02-02T23:41:02.037Z,4.45
2019-02-02T23:43:32.600Z,2.90
2019-02-02T23:46:02.897Z,4.20
2019-02-02T23:48:33.902Z,2.75
2019-02-02T23:51:04.401Z,2.75
2019-02-02T23:53:34.706Z,3.02
2019-02-02T23:56:05.374Z,3.30
2019-02-02T23:58:35.889Z,3.83
